Woodbine, Tennessee
Current Conditions -  °F | °C
As of 11:53 PM on Saturday 25 Oct 2014 (Local Time) from KBNA Reporting Station
Haze Haze  
Wind Chill: 15°   Ceiling: Unl
Heat Index: 15°   Visibility: 4mi
Dew Point: 14°   Wind: 6mph
Humidity: 96%   Direction: 190°S
Pressure: 30.02"   Gusts: NA
Location:  36.0657°N, 86.7236°W
Report Text: KBNA 260453Z 19005KT 4SM BR CLR 15/14 A3002 RMK AO2 SLP160 T01500144
Loading
Personal Weather Stations






























Interactive Weather Map
Tropical Storm Tracking
New forecast layout! Learn more

10-Day Weather Forecast

Advertisements
Track Severe Weather on mobile